createdAt,value
2022-11-02T00:06:12.006Z,13.17
2022-11-02T00:26:17.767Z,15.25
2022-11-02T00:46:23.956Z,15.91
2022-11-02T01:06:29.739Z,12.79
2022-11-02T01:26:35.496Z,11.87
2022-11-02T01:46:41.308Z,12.58
2022-11-02T02:06:47.475Z,13.06
2022-11-02T02:26:53.193Z,13.22
2022-11-02T02:46:59.417Z,11.10
2022-11-02T03:07:05.584Z,11.24
2022-11-02T03:27:11.386Z,11.47
2022-11-02T03:47:17.588Z,10.56
2022-11-02T04:07:23.317Z,9.41
2022-11-02T04:27:29.079Z,10.09
2022-11-02T04:47:34.820Z,10.11
2022-11-02T05:07:40.598Z,9.73
2022-11-02T05:27:46.301Z,9.70
2022-11-02T05:47:52.065Z,8.23
2022-11-02T06:07:57.959Z,8.02
2022-11-02T06:28:04.258Z,10.32
2022-11-02T06:48:09.956Z,10.24
2022-11-02T07:08:16.122Z,10.64
2022-11-02T07:28:22.437Z,10.80
2022-11-02T07:48:28.366Z,10.43
2022-11-02T08:08:34.507Z,13.47
2022-11-02T08:28:40.293Z,10.79
2022-11-02T08:48:45.946Z,10.57
2022-11-02T09:08:53.839Z,8.86
2022-11-02T09:28:56.986Z,6.80
2022-11-02T09:49:02.767Z,5.51
2022-11-02T10:09:08.915Z,5.61
2022-11-02T10:29:14.683Z,4.04
2022-11-02T10:49:20.561Z,4.55
2022-11-02T11:09:26.377Z,4.23
2022-11-02T11:29:33.172Z,1.25
2022-11-02T11:50:07.318Z,1.24
2022-11-02T12:09:44.705Z,1.31
2022-11-02T12:29:50.438Z,1.34
2022-11-02T12:49:56.200Z,1.04
2022-11-02T13:10:02.402Z,1.17
2022-11-02T13:30:08.154Z,1.19
2022-11-02T13:50:13.922Z,1.04
2022-11-02T14:10:20.128Z,1.00
2022-11-02T14:30:26.344Z,1.04
2022-11-02T14:50:32.211Z,1.23
2022-11-02T15:10:37.925Z,1.24
2022-11-02T15:30:43.669Z,1.23
2022-11-02T15:50:49.777Z,1.34
2022-11-02T16:10:56.004Z,1.48
2022-11-02T16:31:01.774Z,1.63
2022-11-02T16:51:13.438Z,2.53
2022-11-02T17:11:12.734Z,1.59
2022-11-02T17:31:18.560Z,2.26
2022-11-02T17:51:24.292Z,2.65
2022-11-02T18:11:30.109Z,3.24
2022-11-02T18:31:36.408Z,3.29
2022-11-02T18:51:42.139Z,3.05
2022-11-02T19:11:54.264Z,2.52
2022-11-02T19:31:49.992Z,2.47
2022-11-02T19:51:55.773Z,2.97
2022-11-02T20:12:01.586Z,2.84
2022-11-02T20:32:07.311Z,2.23
2022-11-02T20:52:13.072Z,5.68
2022-11-02T21:12:18.806Z,5.83
2022-11-02T21:32:25.000Z,10.48
2022-11-02T21:52:30.752Z,11.04
2022-11-02T22:12:36.484Z,12.69
2022-11-02T22:32:42.221Z,8.51
2022-11-02T22:52:48.432Z,9.68
2022-11-02T23:12:54.268Z,9.13
2022-11-02T23:33:00.034Z,11.91
2022-11-02T23:53:06.585Z,9.52
